sensor_id;sensor_type;location;lat;lon;timestamp;temperature;humidity
20977;DHT22;10647;51.016;3.720;2023-03-13T00:01:37;12.70;99.90
20977;DHT22;10647;51.016;3.720;2023-03-13T00:04:05;12.70;99.90
20977;DHT22;10647;51.016;3.720;2023-03-13T00:06:52;12.80;99.90
20977;DHT22;10647;51.016;3.720;2023-03-13T00:09:21;12.70;99.90
20977;DHT22;10647;51.016;3.720;2023-03-13T00:11:48;12.70;99.90
20977;DHT22;10647;51.016;3.720;2023-03-13T00:14:16;12.70;99.90
20977;DHT22;10647;51.016;3.720;2023-03-13T00:16:44;12.80;99.90
20977;DHT22;10647;51.016;3.720;2023-03-13T00:19:13;12.80;99.90
20977;DHT22;10647;51.016;3.720;2023-03-13T00:21:41;12.80;99.90
20977;DHT22;10647;51.016;3.720;2023-03-13T00:24:10;12.90;99.90
20977;DHT22;10647;51.016;3.720;2023-03-13T00:26:40;12.50;99.90
20977;DHT22;10647;51.016;3.720;2023-03-13T00:29:28;12.90;99.90
20977;DHT22;10647;51.016;3.720;2023-03-13T00:31:59;12.90;99.90
20977;DHT22;10647;51.016;3.720;2023-03-13T00:34:27;12.90;99.90
20977;DHT22;10647;51.016;3.720;2023-03-13T00:36:55;13.00;99.90
20977;DHT22;10647;51.016;3.720;2023-03-13T00:39:23;13.00;99.90
20977;DHT22;10647;51.016;3.720;2023-03-13T00:41:50;13.00;99.90
20977;DHT22;10647;51.016;3.720;2023-03-13T00:44:18;13.00;99.90
20977;DHT22;10647;51.016;3.720;2023-03-13T00:46:45;13.10;99.90
20977;DHT22;10647;51.016;3.720;2023-03-13T00:49:19;13.10;99.90
20977;DHT22;10647;51.016;3.720;2023-03-13T00:51:46;13.20;99.90
20977;DHT22;10647;51.016;3.720;2023-03-13T00:54:14;13.10;99.90
20977;DHT22;10647;51.016;3.720;2023-03-13T00:56:42;13.10;99.90
20977;DHT22;10647;51.016;3.720;2023-03-13T00:59:11;13.20;99.90
20977;DHT22;10647;51.016;3.720;2023-03-13T01:01:40;13.20;99.90
20977;DHT22;10647;51.016;3.720;2023-03-13T01:04:10;13.30;99.90
20977;DHT22;10647;51.016;3.720;2023-03-13T01:06:40;13.30;99.90
20977;DHT22;10647;51.016;3.720;2023-03-13T01:09:15;13.30;99.90
20977;DHT22;10647;51.016;3.720;2023-03-13T01:11:44;13.30;99.90
20977;DHT22;10647;51.016;3.720;2023-03-13T01:14:15;13.40;99.90
20977;DHT22;10647;51.016;3.720;2023-03-13T01:16:44;13.50;99.90
20977;DHT22;10647;51.016;3.720;2023-03-13T01:19:14;13.50;99.90
20977;DHT22;10647;51.016;3.720;2023-03-13T01:21:43;13.60;99.90
20977;DHT22;10647;51.016;3.720;2023-03-13T01:24:11;13.50;99.90
20977;DHT22;10647;51.016;3.720;2023-03-13T01:26:38;13.60;99.90
20977;DHT22;10647;51.016;3.720;2023-03-13T01:29:06;13.60;99.90
20977;DHT22;10647;51.016;3.720;2023-03-13T01:31:35;13.70;99.90
20977;DHT22;10647;51.016;3.720;2023-03-13T01:34:10;13.70;99.90
20977;DHT22;10647;51.016;3.720;2023-03-13T01:36:37;13.70;99.90
20977;DHT22;10647;51.016;3.720;2023-03-13T01:39:06;13.80;99.90
20977;DHT22;10647;51.016;3.720;2023-03-13T01:41:34;13.80;99.90
20977;DHT22;10647;51.016;3.720;2023-03-13T01:44:22;13.80;99.90
20977;DHT22;10647;51.016;3.720;2023-03-13T01:46:50;13.90;99.90
20977;DHT22;10647;51.016;3.720;2023-03-13T01:49:22;13.80;99.90
20977;DHT22;10647;51.016;3.720;2023-03-13T01:52:04;13.80;99.90
20977;DHT22;10647;51.016;3.720;2023-03-13T01:54:58;13.90;99.90
20977;DHT22;10647;51.016;3.720;2023-03-13T01:57:34;13.90;99.90
20977;DHT22;10647;51.016;3.720;2023-03-13T02:00:11;13.90;99.90
20977;DHT22;10647;51.016;3.720;2023-03-13T02:02:37;13.90;99.90
20977;DHT22;10647;51.016;3.720;2023-03-13T02:05:06;14.00;99.90
20977;DHT22;10647;51.016;3.720;2023-03-13T02:07:39;14.00;99.90
20977;DHT22;10647;51.016;3.720;2023-03-13T02:10:09;14.00;99.90
20977;DHT22;10647;51.016;3.720;2023-03-13T02:12:38;14.10;99.90
20977;DHT22;10647;51.016;3.720;2023-03-13T02:15:09;14.10;99.90
20977;DHT22;10647;51.016;3.720;2023-03-13T02:17:38;14.10;99.90
20977;DHT22;10647;51.016;3.720;2023-03-13T02:20:06;14.10;99.90
20977;DHT22;10647;51.016;3.720;2023-03-13T02:22:57;14.10;99.90
20977;DHT22;10647;51.016;3.720;2023-03-13T02:27:59;14.20;99.90
20977;DHT22;10647;51.016;3.720;2023-03-13T02:30:27;14.20;99.90
20977;DHT22;10647;51.016;3.720;2023-03-13T02:32:55;14.20;99.90
20977;DHT22;10647;51.016;3.720;2023-03-13T02:35:23;14.20;99.90
20977;DHT22;10647;51.016;3.720;2023-03-13T02:37:59;14.20;99.90
20977;DHT22;10647;51.016;3.720;2023-03-13T02:40:31;14.30;99.90
20977;DHT22;10647;51.016;3.720;2023-03-13T02:43:05;14.30;99.90
20977;DHT22;10647;51.016;3.720;2023-03-13T02:45:31;14.20;99.90
20977;DHT22;10647;51.016;3.720;2023-03-13T02:47:58;14.30;99.90
20977;DHT22;10647;51.016;3.720;2023-03-13T02:50:29;14.30;99.90
20977;DHT22;10647;51.016;3.720;2023-03-13T02:53:02;14.30;99.90
20977;DHT22;10647;51.016;3.720;2023-03-13T02:55:37;14.40;99.90
20977;DHT22;10647;51.016;3.720;2023-03-13T02:58:03;14.30;99.90
20977;DHT22;10647;51.016;3.720;2023-03-13T03:00:31;14.40;99.90
20977;DHT22;10647;51.016;3.720;2023-03-13T03:02:58;14.40;99.90
20977;DHT22;10647;51.016;3.720;2023-03-13T03:05:45;14.50;99.90
20977;DHT22;10647;51.016;3.720;2023-03-13T03:08:13;14.50;99.90
20977;DHT22;10647;51.016;3.720;2023-03-13T03:10:41;14.40;99.90
20977;DHT22;10647;51.016;3.720;2023-03-13T03:13:10;14.40;99.90
20977;DHT22;10647;51.016;3.720;2023-03-13T03:15:37;14.50;99.90
20977;DHT22;10647;51.016;3.720;2023-03-13T03:18:05;14.50;99.90
20977;DHT22;10647;51.016;3.720;2023-03-13T03:20:34;14.50;99.90
20977;DHT22;10647;51.016;3.720;2023-03-13T03:23:03;14.60;99.90
20977;DHT22;10647;51.016;3.720;2023-03-13T03:25:33;14.60;99.90
20977;DHT22;10647;51.016;3.720;2023-03-13T03:28:00;14.70;99.90
20977;DHT22;10647;51.016;3.720;2023-03-13T03:30:28;14.60;99.90
20977;DHT22;10647;51.016;3.720;2023-03-13T03:32:55;14.70;99.90
20977;DHT22;10647;51.016;3.720;2023-03-13T03:35:23;14.60;99.90
20977;DHT22;10647;51.016;3.720;2023-03-13T03:37:54;14.70;99.90
20977;DHT22;10647;51.016;3.720;2023-03-13T03:40:21;14.70;99.90
20977;DHT22;10647;51.016;3.720;2023-03-13T03:42:50;14.70;99.90
20977;DHT22;10647;51.016;3.720;2023-03-13T03:45:17;14.70;99.90
20977;DHT22;10647;51.016;3.720;2023-03-13T03:47:47;14.70;99.90
20977;DHT22;10647;51.016;3.720;2023-03-13T03:50:15;14.80;99.90
20977;DHT22;10647;51.016;3.720;2023-03-13T03:52:43;14.70;99.90
20977;DHT22;10647;51.016;3.720;2023-03-13T03:55:16;14.80;99.90
20977;DHT22;10647;51.016;3.720;2023-03-13T03:57:44;14.90;99.90
20977;DHT22;10647;51.016;3.720;2023-03-13T04:00:12;14.80;99.90
20977;DHT22;10647;51.016;3.720;2023-03-13T04:02:41;14.80;99.90
20977;DHT22;10647;51.016;3.720;2023-03-13T04:05:09;14.90;99.90
20977;DHT22;10647;51.016;3.720;2023-03-13T04:07:40;14.90;99.90
20977;DHT22;10647;51.016;3.720;2023-03-13T04:10:08;14.90;99.90
20977;DHT22;10647;51.016;3.720;2023-03-13T04:12:35;14.90;99.90
20977;DHT22;10647;51.016;3.720;2023-03-13T04:15:03;14.90;99.90
20977;DHT22;10647;51.016;3.720;2023-03-13T04:17:31;15.00;99.90
20977;DHT22;10647;51.016;3.720;2023-03-13T04:19:59;15.00;99.90
20977;DHT22;10647;51.016;3.720;2023-03-13T04:22:26;14.90;99.90
20977;DHT22;10647;51.016;3.720;2023-03-13T04:24:54;14.90;99.90
20977;DHT22;10647;51.016;3.720;2023-03-13T04:27:21;15.00;99.90
20977;DHT22;10647;51.016;3.720;2023-03-13T04:29:49;15.00;99.90
20977;DHT22;10647;51.016;3.720;2023-03-13T04:32:16;14.90;99.90
20977;DHT22;10647;51.016;3.720;2023-03-13T04:34:45;15.00;99.90
20977;DHT22;10647;51.016;3.720;2023-03-13T04:37:12;15.00;99.90
20977;DHT22;10647;51.016;3.720;2023-03-13T04:39:40;15.00;99.90
20977;DHT22;10647;51.016;3.720;2023-03-13T04:42:09;15.00;99.90
20977;DHT22;10647;51.016;3.720;2023-03-13T04:44:37;14.90;99.90
20977;DHT22;10647;51.016;3.720;2023-03-13T04:47:05;15.00;99.90
20977;DHT22;10647;51.016;3.720;2023-03-13T04:49:33;15.00;99.90
20977;DHT22;10647;51.016;3.720;2023-03-13T04:52:01;14.90;99.90
20977;DHT22;10647;51.016;3.720;2023-03-13T04:54:28;15.00;99.90
20977;DHT22;10647;51.016;3.720;2023-03-13T04:56:58;14.90;99.90
20977;DHT22;10647;51.016;3.720;2023-03-13T04:59:25;14.90;99.90
20977;DHT22;10647;51.016;3.720;2023-03-13T05:01:53;14.90;99.90
20977;DHT22;10647;51.016;3.720;2023-03-13T05:04:21;14.90;99.90
20977;DHT22;10647;51.016;3.720;2023-03-13T05:06:48;14.90;99.90
20977;DHT22;10647;51.016;3.720;2023-03-13T05:09:17;14.90;99.90
20977;DHT22;10647;51.016;3.720;2023-03-13T05:11:44;14.80;99.90
20977;DHT22;10647;51.016;3.720;2023-03-13T05:14:12;14.70;99.90
20977;DHT22;10647;51.016;3.720;2023-03-13T05:16:40;14.70;99.90
20977;DHT22;10647;51.016;3.720;2023-03-13T05:19:07;14.70;99.90
20977;DHT22;10647;51.016;3.720;2023-03-13T05:21:35;14.70;99.90
20977;DHT22;10647;51.016;3.720;2023-03-13T05:24:03;14.80;99.90
20977;DHT22;10647;51.016;3.720;2023-03-13T05:26:30;14.80;99.90
20977;DHT22;10647;51.016;3.720;2023-03-13T05:28:58;14.90;99.90
20977;DHT22;10647;51.016;3.720;2023-03-13T05:31:27;14.90;99.90
20977;DHT22;10647;51.016;3.720;2023-03-13T05:33:55;14.80;99.90
20977;DHT22;10647;51.016;3.720;2023-03-13T05:36:23;14.80;99.90
20977;DHT22;10647;51.016;3.720;2023-03-13T05:38:51;14.90;99.90
20977;DHT22;10647;51.016;3.720;2023-03-13T05:41:18;14.90;99.90
20977;DHT22;10647;51.016;3.720;2023-03-13T05:43:46;14.90;99.90
20977;DHT22;10647;51.016;3.720;2023-03-13T05:46:15;14.90;99.90
20977;DHT22;10647;51.016;3.720;2023-03-13T05:48:42;14.90;99.90
20977;DHT22;10647;51.016;3.720;2023-03-13T05:51:11;15.00;99.90
20977;DHT22;10647;51.016;3.720;2023-03-13T05:53:40;15.00;99.90
20977;DHT22;10647;51.016;3.720;2023-03-13T05:56:08;15.00;99.90
20977;DHT22;10647;51.016;3.720;2023-03-13T05:58:35;15.00;99.90
20977;DHT22;10647;51.016;3.720;2023-03-13T06:01:08;15.00;99.90
20977;DHT22;10647;51.016;3.720;2023-03-13T06:03:36;15.00;99.90
20977;DHT22;10647;51.016;3.720;2023-03-13T06:06:03;15.00;99.90
20977;DHT22;10647;51.016;3.720;2023-03-13T06:08:31;15.10;99.90
20977;DHT22;10647;51.016;3.720;2023-03-13T06:11:00;15.10;99.90
20977;DHT22;10647;51.016;3.720;2023-03-13T06:13:28;15.10;99.90
20977;DHT22;10647;51.016;3.720;2023-03-13T06:15:57;15.10;99.90
20977;DHT22;10647;51.016;3.720;2023-03-13T06:18:27;15.10;99.90
20977;DHT22;10647;51.016;3.720;2023-03-13T06:21:00;15.10;99.90
20977;DHT22;10647;51.016;3.720;2023-03-13T06:23:28;15.10;99.90
20977;DHT22;10647;51.016;3.720;2023-03-13T06:25:56;15.00;99.90
20977;DHT22;10647;51.016;3.720;2023-03-13T06:31:16;15.00;99.90
20977;DHT22;10647;51.016;3.720;2023-03-13T06:33:43;14.90;99.90
20977;DHT22;10647;51.016;3.720;2023-03-13T06:36:11;14.90;99.90
20977;DHT22;10647;51.016;3.720;2023-03-13T06:38:38;14.90;99.90
20977;DHT22;10647;51.016;3.720;2023-03-13T06:41:07;15.00;99.90
20977;DHT22;10647;51.016;3.720;2023-03-13T06:43:35;15.00;99.90
20977;DHT22;10647;51.016;3.720;2023-03-13T06:46:04;15.00;99.90
20977;DHT22;10647;51.016;3.720;2023-03-13T06:48:32;15.10;99.90
20977;DHT22;10647;51.016;3.720;2023-03-13T06:51:03;15.10;99.90
20977;DHT22;10647;51.016;3.720;2023-03-13T06:53:30;15.20;99.90
20977;DHT22;10647;51.016;3.720;2023-03-13T06:55:59;15.20;99.90
20977;DHT22;10647;51.016;3.720;2023-03-13T06:58:27;15.20;99.90
20977;DHT22;10647;51.016;3.720;2023-03-13T07:00:55;15.30;99.90
20977;DHT22;10647;51.016;3.720;2023-03-13T07:03:22;15.30;99.90
20977;DHT22;10647;51.016;3.720;2023-03-13T07:05:55;15.20;99.90
20977;DHT22;10647;51.016;3.720;2023-03-13T07:08:23;15.20;99.90
20977;DHT22;10647;51.016;3.720;2023-03-13T07:10:52;15.20;99.90
20977;DHT22;10647;51.016;3.720;2023-03-13T07:13:20;15.20;99.90
20977;DHT22;10647;51.016;3.720;2023-03-13T07:15:47;15.10;99.90
20977;DHT22;10647;51.016;3.720;2023-03-13T07:18:16;15.20;99.90
20977;DHT22;10647;51.016;3.720;2023-03-13T07:20:44;15.20;99.90
20977;DHT22;10647;51.016;3.720;2023-03-13T07:23:13;15.40;99.90
20977;DHT22;10647;51.016;3.720;2023-03-13T07:25:40;15.40;99.90
20977;DHT22;10647;51.016;3.720;2023-03-13T07:28:08;15.40;99.90
20977;DHT22;10647;51.016;3.720;2023-03-13T07:30:35;15.50;99.90
20977;DHT22;10647;51.016;3.720;2023-03-13T07:33:03;15.50;99.90
20977;DHT22;10647;51.016;3.720;2023-03-13T07:35:30;15.60;99.90
20977;DHT22;10647;51.016;3.720;2023-03-13T07:37:58;15.80;99.90
20977;DHT22;10647;51.016;3.720;2023-03-13T07:40:26;15.90;99.90
20977;DHT22;10647;51.016;3.720;2023-03-13T07:42:57;15.90;99.90
20977;DHT22;10647;51.016;3.720;2023-03-13T07:45:24;15.90;99.90
20977;DHT22;10647;51.016;3.720;2023-03-13T07:47:52;16.00;99.90
20977;DHT22;10647;51.016;3.720;2023-03-13T07:50:19;16.00;99.90
20977;DHT22;10647;51.016;3.720;2023-03-13T07:52:47;16.10;99.90
20977;DHT22;10647;51.016;3.720;2023-03-13T07:55:14;16.30;99.90
20977;DHT22;10647;51.016;3.720;2023-03-13T07:57:42;16.50;99.90
20977;DHT22;10647;51.016;3.720;2023-03-13T08:00:13;16.60;99.90
20977;DHT22;10647;51.016;3.720;2023-03-13T08:02:42;16.70;99.90
20977;DHT22;10647;51.016;3.720;2023-03-13T08:05:09;16.70;99.90
20977;DHT22;10647;51.016;3.720;2023-03-13T08:07:37;16.80;99.90
20977;DHT22;10647;51.016;3.720;2023-03-13T08:10:05;16.90;99.90
20977;DHT22;10647;51.016;3.720;2023-03-13T08:12:33;16.90;99.90
20977;DHT22;10647;51.016;3.720;2023-03-13T08:15:01;16.90;99.90
20977;DHT22;10647;51.016;3.720;2023-03-13T08:17:30;17.10;99.90
20977;DHT22;10647;51.016;3.720;2023-03-13T08:19:58;17.10;99.90
20977;DHT22;10647;51.016;3.720;2023-03-13T08:22:25;17.20;99.90
20977;DHT22;10647;51.016;3.720;2023-03-13T08:24:53;17.30;99.90
20977;DHT22;10647;51.016;3.720;2023-03-13T08:30:01;17.40;99.90
20977;DHT22;10647;51.016;3.720;2023-03-13T08:32:28;17.40;99.90
20977;DHT22;10647;51.016;3.720;2023-03-13T08:35:04;17.60;99.90
20977;DHT22;10647;51.016;3.720;2023-03-13T08:37:32;17.70;99.90
20977;DHT22;10647;51.016;3.720;2023-03-13T08:39:59;17.70;99.90
20977;DHT22;10647;51.016;3.720;2023-03-13T08:42:32;17.70;99.90
20977;DHT22;10647;51.016;3.720;2023-03-13T08:45:07;17.70;99.90
20977;DHT22;10647;51.016;3.720;2023-03-13T08:47:34;17.90;99.90
20977;DHT22;10647;51.016;3.720;2023-03-13T08:50:02;18.10;99.90
20977;DHT22;10647;51.016;3.720;2023-03-13T08:52:30;18.20;99.90
20977;DHT22;10647;51.016;3.720;2023-03-13T08:54:58;18.40;99.90
20977;DHT22;10647;51.016;3.720;2023-03-13T08:57:25;18.40;99.90
20977;DHT22;10647;51.016;3.720;2023-03-13T08:59:53;18.50;99.90
20977;DHT22;10647;51.016;3.720;2023-03-13T09:02:21;18.60;99.90
20977;DHT22;10647;51.016;3.720;2023-03-13T09:04:49;18.50;99.90
20977;DHT22;10647;51.016;3.720;2023-03-13T09:07:16;18.80;99.90
20977;DHT22;10647;51.016;3.720;2023-03-13T09:09:45;18.80;99.90
20977;DHT22;10647;51.016;3.720;2023-03-13T09:12:12;18.90;99.90
20977;DHT22;10647;51.016;3.720;2023-03-13T09:14:42;19.00;99.90
20977;DHT22;10647;51.016;3.720;2023-03-13T09:17:12;19.00;99.90
20977;DHT22;10647;51.016;3.720;2023-03-13T09:19:46;19.20;99.90
20977;DHT22;10647;51.016;3.720;2023-03-13T09:22:13;19.20;99.90
20977;DHT22;10647;51.016;3.720;2023-03-13T09:24:41;19.50;99.90
20977;DHT22;10647;51.016;3.720;2023-03-13T09:27:10;19.30;99.90
20977;DHT22;10647;51.016;3.720;2023-03-13T09:29:38;19.50;99.90
20977;DHT22;10647;51.016;3.720;2023-03-13T09:32:09;19.60;99.90
20977;DHT22;10647;51.016;3.720;2023-03-13T09:34:36;19.60;99.90
20977;DHT22;10647;51.016;3.720;2023-03-13T09:37:04;19.70;99.90
20977;DHT22;10647;51.016;3.720;2023-03-13T09:39:32;19.90;99.90
20977;DHT22;10647;51.016;3.720;2023-03-13T09:42:17;19.60;99.90
20977;DHT22;10647;51.016;3.720;2023-03-13T09:45:05;19.40;99.90
20977;DHT22;10647;51.016;3.720;2023-03-13T09:47:49;19.20;99.90
20977;DHT22;10647;51.016;3.720;2023-03-13T09:50:35;19.10;99.90
20977;DHT22;10647;51.016;3.720;2023-03-13T09:53:10;19.30;99.90
20977;DHT22;10647;51.016;3.720;2023-03-13T09:55:32;19.80;99.90
20977;DHT22;10647;51.016;3.720;2023-03-13T09:58:09;20.40;99.90
20977;DHT22;10647;51.016;3.720;2023-03-13T10:00:37;20.80;99.90
20977;DHT22;10647;51.016;3.720;2023-03-13T10:05:59;20.60;99.90
20977;DHT22;10647;51.016;3.720;2023-03-13T10:08:35;21.00;99.90
20977;DHT22;10647;51.016;3.720;2023-03-13T10:14:06;20.90;99.90
20977;DHT22;10647;51.016;3.720;2023-03-13T10:16:46;21.00;99.90
20977;DHT22;10647;51.016;3.720;2023-03-13T10:19:21;21.00;99.90
20977;DHT22;10647;51.016;3.720;2023-03-13T10:22:04;21.10;99.90
20977;DHT22;10647;51.016;3.720;2023-03-13T10:24:44;21.20;99.90
20977;DHT22;10647;51.016;3.720;2023-03-13T10:27:08;21.20;99.90
20977;DHT22;10647;51.016;3.720;2023-03-13T10:29:37;21.50;99.90
20977;DHT22;10647;51.016;3.720;2023-03-13T10:32:08;21.40;99.90
20977;DHT22;10647;51.016;3.720;2023-03-13T10:34:56;21.20;99.90
20977;DHT22;10647;51.016;3.720;2023-03-13T10:37:32;20.90;99.90
20977;DHT22;10647;51.016;3.720;2023-03-13T10:40:24;21.10;99.90
20977;DHT22;10647;51.016;3.720;2023-03-13T10:42:58;20.90;99.90
20977;DHT22;10647;51.016;3.720;2023-03-13T10:45:22;21.00;99.90
20977;DHT22;10647;51.016;3.720;2023-03-13T10:47:55;21.20;99.90
20977;DHT22;10647;51.016;3.720;2023-03-13T10:50:25;21.20;99.90
20977;DHT22;10647;51.016;3.720;2023-03-13T10:52:53;20.90;99.90
20977;DHT22;10647;51.016;3.720;2023-03-13T10:55:23;20.50;99.90
20977;DHT22;10647;51.016;3.720;2023-03-13T10:57:58;20.70;99.90
20977;DHT22;10647;51.016;3.720;2023-03-13T11:00:35;20.80;99.90
20977;DHT22;10647;51.016;3.720;2023-03-13T11:03:14;20.50;99.90
20977;DHT22;10647;51.016;3.720;2023-03-13T11:05:45;20.30;99.90
20977;DHT22;10647;51.016;3.720;2023-03-13T11:08:24;20.50;99.90
20977;DHT22;10647;51.016;3.720;2023-03-13T11:13:42;20.80;99.90
20977;DHT22;10647;51.016;3.720;2023-03-13T11:16:16;21.00;99.90
20977;DHT22;10647;51.016;3.720;2023-03-13T11:25:03;21.90;99.90
20977;DHT22;10647;51.016;3.720;2023-03-13T11:27:58;21.80;99.90
20977;DHT22;10647;51.016;3.720;2023-03-13T11:36:07;21.60;99.90
20977;DHT22;10647;51.016;3.720;2023-03-13T11:38:39;21.40;99.90
20977;DHT22;10647;51.016;3.720;2023-03-13T11:41:25;21.40;99.90
20977;DHT22;10647;51.016;3.720;2023-03-13T11:49:24;21.50;99.90
20977;DHT22;10647;51.016;3.720;2023-03-13T11:54:44;21.60;99.90
20977;DHT22;10647;51.016;3.720;2023-03-13T11:57:26;21.70;99.90
20977;DHT22;10647;51.016;3.720;2023-03-13T12:02:48;21.90;99.90
20977;DHT22;10647;51.016;3.720;2023-03-13T12:05:09;21.90;99.90
20977;DHT22;10647;51.016;3.720;2023-03-13T12:07:40;21.90;99.90
20977;DHT22;10647;51.016;3.720;2023-03-13T12:10:13;21.80;99.90
20977;DHT22;10647;51.016;3.720;2023-03-13T12:12:46;21.90;99.90
20977;DHT22;10647;51.016;3.720;2023-03-13T12:18:04;21.90;99.90
20977;DHT22;10647;51.016;3.720;2023-03-13T12:23:31;21.70;99.90
20977;DHT22;10647;51.016;3.720;2023-03-13T12:26:17;21.80;99.90
20977;DHT22;10647;51.016;3.720;2023-03-13T12:29:02;21.90;99.90
20977;DHT22;10647;51.016;3.720;2023-03-13T12:39:42;21.60;99.90
20977;DHT22;10647;51.016;3.720;2023-03-13T12:44:58;21.50;99.90
20977;DHT22;10647;51.016;3.720;2023-03-13T12:48:22;21.60;99.90
20977;DHT22;10647;51.016;3.720;2023-03-13T12:50:36;21.70;99.90
20977;DHT22;10647;51.016;3.720;2023-03-13T12:53:27;21.80;99.90
20977;DHT22;10647;51.016;3.720;2023-03-13T13:01:20;21.90;99.90
20977;DHT22;10647;51.016;3.720;2023-03-13T13:03:53;22.20;99.90
20977;DHT22;10647;51.016;3.720;2023-03-13T13:06:21;22.30;99.90
20977;DHT22;10647;51.016;3.720;2023-03-13T13:19:49;24.20;99.90
20977;DHT22;10647;51.016;3.720;2023-03-13T13:27:44;28.20;99.90
20977;DHT22;10647;51.016;3.720;2023-03-13T13:32:50;26.80;99.90
20977;DHT22;10647;51.016;3.720;2023-03-13T13:35:24;25.80;99.90
20977;DHT22;10647;51.016;3.720;2023-03-13T13:37:53;27.30;99.90
20977;DHT22;10647;51.016;3.720;2023-03-13T13:40:27;27.00;99.90
20977;DHT22;10647;51.016;3.720;2023-03-13T13:42:56;28.50;99.90
20977;DHT22;10647;51.016;3.720;2023-03-13T13:45:31;30.40;99.90
20977;DHT22;10647;51.016;3.720;2023-03-13T13:48:28;31.10;99.90
20977;DHT22;10647;51.016;3.720;2023-03-13T13:59:24;30.80;99.90
20977;DHT22;10647;51.016;3.720;2023-03-13T14:04:58;31.50;99.90
20977;DHT22;10647;51.016;3.720;2023-03-13T14:15:36;33.00;99.90
20977;DHT22;10647;51.016;3.720;2023-03-13T14:18:25;33.70;99.90
20977;DHT22;10647;51.016;3.720;2023-03-13T14:23:40;33.60;99.90
20977;DHT22;10647;51.016;3.720;2023-03-13T14:26:11;33.80;99.90
20977;DHT22;10647;51.016;3.720;2023-03-13T14:28:41;33.60;99.90
20977;DHT22;10647;51.016;3.720;2023-03-13T14:31:09;33.90;99.90
20977;DHT22;10647;51.016;3.720;2023-03-13T14:33:40;32.70;99.90
20977;DHT22;10647;51.016;3.720;2023-03-13T14:36:07;33.40;99.90
20977;DHT22;10647;51.016;3.720;2023-03-13T14:38:36;33.40;99.90
20977;DHT22;10647;51.016;3.720;2023-03-13T14:41:04;33.70;99.90
20977;DHT22;10647;51.016;3.720;2023-03-13T14:43:34;33.40;99.90
20977;DHT22;10647;51.016;3.720;2023-03-13T14:46:30;33.80;99.90
20977;DHT22;10647;51.016;3.720;2023-03-13T14:49:20;34.10;99.90
20977;DHT22;10647;51.016;3.720;2023-03-13T14:51:58;34.40;99.90
20977;DHT22;10647;51.016;3.720;2023-03-13T14:54:32;34.50;99.90
20977;DHT22;10647;51.016;3.720;2023-03-13T14:59:39;34.30;99.90
20977;DHT22;10647;51.016;3.720;2023-03-13T15:02:26;34.10;99.90
20977;DHT22;10647;51.016;3.720;2023-03-13T15:05:03;33.90;99.90
20977;DHT22;10647;51.016;3.720;2023-03-13T15:07:51;33.20;99.90
20977;DHT22;10647;51.016;3.720;2023-03-13T15:10:28;32.50;99.90
20977;DHT22;10647;51.016;3.720;2023-03-13T15:12:53;32.40;99.90
20977;DHT22;10647;51.016;3.720;2023-03-13T15:15:21;31.90;99.90
20977;DHT22;10647;51.016;3.720;2023-03-13T15:17:49;31.60;99.90
20977;DHT22;10647;51.016;3.720;2023-03-13T15:20:16;30.70;99.90
20977;DHT22;10647;51.016;3.720;2023-03-13T15:22:45;30.20;99.90
20977;DHT22;10647;51.016;3.720;2023-03-13T15:25:20;29.90;99.90
20977;DHT22;10647;51.016;3.720;2023-03-13T15:27:49;29.20;99.90
20977;DHT22;10647;51.016;3.720;2023-03-13T15:30:19;28.50;99.90
20977;DHT22;10647;51.016;3.720;2023-03-13T15:32:49;27.70;99.90
20977;DHT22;10647;51.016;3.720;2023-03-13T15:35:23;27.10;99.90
20977;DHT22;10647;51.016;3.720;2023-03-13T15:37:50;26.70;99.90
20977;DHT22;10647;51.016;3.720;2023-03-13T15:40:19;26.30;99.90
20977;DHT22;10647;51.016;3.720;2023-03-13T15:42:46;26.30;99.90
20977;DHT22;10647;51.016;3.720;2023-03-13T15:45:14;25.60;99.90
20977;DHT22;10647;51.016;3.720;2023-03-13T15:47:43;25.70;99.90
20977;DHT22;10647;51.016;3.720;2023-03-13T15:50:13;25.60;99.90
20977;DHT22;10647;51.016;3.720;2023-03-13T15:52:41;25.10;99.90
20977;DHT22;10647;51.016;3.720;2023-03-13T15:55:12;25.10;99.90
20977;DHT22;10647;51.016;3.720;2023-03-13T15:57:48;24.90;99.90
20977;DHT22;10647;51.016;3.720;2023-03-13T16:00:23;24.70;99.90
20977;DHT22;10647;51.016;3.720;2023-03-13T16:02:46;25.10;99.90
20977;DHT22;10647;51.016;3.720;2023-03-13T16:05:14;25.30;99.90
20977;DHT22;10647;51.016;3.720;2023-03-13T16:07:43;24.80;99.90
20977;DHT22;10647;51.016;3.720;2023-03-13T16:10:21;24.50;99.90
20977;DHT22;10647;51.016;3.720;2023-03-13T16:12:44;24.30;99.90
20977;DHT22;10647;51.016;3.720;2023-03-13T16:15:12;24.20;99.90
20977;DHT22;10647;51.016;3.720;2023-03-13T16:17:40;23.90;99.90
20977;DHT22;10647;51.016;3.720;2023-03-13T16:20:17;23.60;99.90
20977;DHT22;10647;51.016;3.720;2023-03-13T16:22:42;23.40;99.90
20977;DHT22;10647;51.016;3.720;2023-03-13T16:25:29;22.90;99.90
20977;DHT22;10647;51.016;3.720;2023-03-13T16:28:04;22.80;99.90
20977;DHT22;10647;51.016;3.720;2023-03-13T16:30:33;22.70;99.90
20977;DHT22;10647;51.016;3.720;2023-03-13T16:33:01;22.40;99.90
20977;DHT22;10647;51.016;3.720;2023-03-13T16:35:28;22.20;99.90
20977;DHT22;10647;51.016;3.720;2023-03-13T16:37:57;22.20;99.90
20977;DHT22;10647;51.016;3.720;2023-03-13T16:40:28;21.90;99.90
20977;DHT22;10647;51.016;3.720;2023-03-13T16:42:55;21.90;99.90
20977;DHT22;10647;51.016;3.720;2023-03-13T16:45:23;21.70;99.90
20977;DHT22;10647;51.016;3.720;2023-03-13T16:47:51;21.50;99.90
20977;DHT22;10647;51.016;3.720;2023-03-13T16:50:36;21.30;99.90
20977;DHT22;10647;51.016;3.720;2023-03-13T16:53:09;21.40;99.90
20977;DHT22;10647;51.016;3.720;2023-03-13T16:55:37;21.30;99.90
20977;DHT22;10647;51.016;3.720;2023-03-13T16:58:05;21.30;99.90
20977;DHT22;10647;51.016;3.720;2023-03-13T17:00:52;21.10;99.90
20977;DHT22;10647;51.016;3.720;2023-03-13T17:03:21;20.90;99.90
20977;DHT22;10647;51.016;3.720;2023-03-13T17:05:49;20.70;99.90
20977;DHT22;10647;51.016;3.720;2023-03-13T17:08:16;20.70;99.90
20977;DHT22;10647;51.016;3.720;2023-03-13T17:10:46;20.60;99.90
20977;DHT22;10647;51.016;3.720;2023-03-13T17:13:14;20.50;99.90
20977;DHT22;10647;51.016;3.720;2023-03-13T17:15:42;20.40;99.90
20977;DHT22;10647;51.016;3.720;2023-03-13T17:18:09;20.50;99.90
20977;DHT22;10647;51.016;3.720;2023-03-13T17:20:38;20.50;99.90
20977;DHT22;10647;51.016;3.720;2023-03-13T17:23:05;20.40;99.90
20977;DHT22;10647;51.016;3.720;2023-03-13T17:25:33;20.00;99.90
20977;DHT22;10647;51.016;3.720;2023-03-13T17:28:00;19.80;99.90
20977;DHT22;10647;51.016;3.720;2023-03-13T17:30:29;19.80;99.90
20977;DHT22;10647;51.016;3.720;2023-03-13T17:32:57;19.60;99.90
20977;DHT22;10647;51.016;3.720;2023-03-13T17:35:26;19.40;99.90
20977;DHT22;10647;51.016;3.720;2023-03-13T17:37:53;19.20;99.90